createdAt,value
2018-03-29T00:00:12.961Z,3.20
2018-03-29T00:02:40.466Z,3.40
2018-03-29T00:05:08.715Z,2.87
2018-03-29T00:07:36.314Z,2.77
2018-03-29T00:10:03.816Z,3.10
2018-03-29T00:12:31.303Z,3.47
2018-03-29T00:14:58.807Z,2.83
2018-03-29T00:17:26.430Z,3.40
2018-03-29T00:19:54.779Z,3.50
2018-03-29T00:22:22.399Z,2.70
2018-03-29T00:24:50.799Z,3.07
2018-03-29T00:27:19.174Z,2.67
2018-03-29T00:29:46.812Z,2.90
2018-03-29T00:32:14.358Z,2.90
2018-03-29T00:34:41.937Z,3.13
2018-03-29T00:37:09.507Z,3.10
2018-03-29T00:39:37.035Z,2.93
2018-03-29T00:42:05.267Z,2.70
2018-03-29T00:44:32.749Z,2.63
2018-03-29T00:47:00.295Z,3.47
2018-03-29T00:49:27.781Z,3.00
2018-03-29T00:51:55.290Z,2.43
2018-03-29T00:54:22.806Z,2.80
2018-03-29T00:56:50.284Z,2.80
2018-03-29T00:59:17.770Z,2.70
2018-03-29T01:01:45.250Z,2.50
2018-03-29T01:04:12.752Z,2.70
2018-03-29T01:06:41.009Z,3.00
2018-03-29T01:09:08.538Z,2.80
2018-03-29T01:11:36.775Z,2.83
2018-03-29T01:14:04.262Z,2.73
2018-03-29T01:16:31.783Z,2.50
2018-03-29T01:18:59.270Z,2.73
2018-03-29T01:21:26.741Z,2.47
2018-03-29T01:23:54.246Z,2.30
2018-03-29T01:26:21.747Z,2.60
2018-03-29T01:28:50.007Z,2.53
2018-03-29T01:31:17.492Z,2.60
2018-03-29T01:33:45.758Z,2.57
2018-03-29T01:36:13.321Z,2.90
2018-03-29T01:38:40.799Z,2.83
2018-03-29T01:41:08.306Z,2.67
2018-03-29T01:43:36.546Z,2.80
2018-03-29T01:46:04.038Z,2.70
2018-03-29T01:48:32.270Z,2.60
2018-03-29T01:50:59.763Z,2.80
2018-03-29T01:53:27.317Z,2.57
2018-03-29T01:55:54.832Z,2.70
2018-03-29T01:58:22.333Z,2.60
2018-03-29T02:00:49.822Z,2.40
2018-03-29T02:03:17.303Z,2.60
2018-03-29T02:05:44.855Z,2.73
2018-03-29T02:08:12.361Z,2.30
2018-03-29T02:10:39.885Z,2.63
2018-03-29T02:13:07.363Z,2.50
2018-03-29T02:15:34.863Z,2.00
2018-03-29T02:18:02.353Z,2.63
2018-03-29T02:20:29.850Z,2.47
2018-03-29T02:22:57.334Z,2.90
2018-03-29T02:25:25.615Z,2.60
2018-03-29T02:27:53.896Z,2.37
2018-03-29T02:30:21.400Z,2.50
2018-03-29T02:32:48.888Z,2.33
2018-03-29T02:35:16.391Z,1.97
2018-03-29T02:37:43.883Z,2.73
2018-03-29T02:40:12.141Z,2.50
2018-03-29T02:42:39.636Z,2.33
2018-03-29T02:45:07.103Z,2.50
2018-03-29T02:47:34.598Z,2.20
2018-03-29T02:50:02.847Z,2.37
2018-03-29T02:52:30.332Z,2.27
2018-03-29T02:54:57.813Z,2.40
2018-03-29T02:57:26.101Z,2.30
2018-03-29T02:59:53.609Z,2.20
2018-03-29T03:02:21.094Z,2.37
2018-03-29T03:04:48.586Z,1.90
2018-03-29T03:07:16.080Z,2.40
2018-03-29T03:09:45.147Z,2.20
2018-03-29T03:12:12.656Z,2.00
2018-03-29T03:14:40.906Z,2.00
2018-03-29T03:17:08.401Z,2.00
2018-03-29T03:19:35.922Z,2.00
2018-03-29T03:22:03.431Z,2.17
2018-03-29T03:24:30.934Z,2.30
2018-03-29T03:26:59.210Z,2.40
2018-03-29T03:29:26.695Z,2.27
2018-03-29T03:31:54.944Z,1.70
2018-03-29T03:34:22.420Z,1.87
2018-03-29T03:36:49.918Z,2.00
2018-03-29T03:39:18.169Z,2.43
2018-03-29T03:41:45.695Z,2.10
2018-03-29T03:44:13.951Z,2.20
2018-03-29T03:46:41.515Z,2.50
2018-03-29T03:49:09.015Z,2.30
2018-03-29T03:51:37.343Z,1.93
2018-03-29T03:54:04.828Z,1.87
2018-03-29T03:56:32.298Z,2.10
2018-03-29T03:58:59.790Z,2.10
2018-03-29T04:01:27.314Z,2.00
2018-03-29T04:03:54.802Z,2.20
2018-03-29T04:06:22.270Z,1.87
2018-03-29T04:08:50.530Z,2.10
2018-03-29T04:11:18.003Z,1.77
2018-03-29T04:13:45.494Z,1.77
2018-03-29T04:16:12.970Z,2.10
2018-03-29T04:18:40.455Z,1.83
2018-03-29T04:21:07.954Z,2.10
2018-03-29T04:23:35.452Z,2.03
2018-03-29T04:26:02.955Z,2.10
2018-03-29T04:28:30.472Z,2.30
2018-03-29T04:30:58.724Z,1.90
2018-03-29T04:33:26.202Z,1.93
2018-03-29T04:35:53.700Z,1.70
2018-03-29T04:38:21.241Z,1.90
2018-03-29T04:40:48.775Z,1.60
2018-03-29T04:43:16.282Z,1.80
2018-03-29T04:45:43.811Z,2.07
2018-03-29T04:48:11.340Z,2.00
2018-03-29T04:50:38.854Z,2.20
2018-03-29T04:53:06.339Z,2.10
2018-03-29T04:55:33.887Z,2.20
2018-03-29T04:58:01.326Z,2.07
2018-03-29T05:00:28.839Z,1.80
2018-03-29T05:02:56.372Z,1.80
2018-03-29T05:05:23.885Z,2.03
2018-03-29T05:07:51.404Z,1.80
2018-03-29T05:10:18.897Z,1.83
2018-03-29T05:12:46.473Z,1.87
2018-03-29T05:15:14.727Z,1.80
2018-03-29T05:17:42.239Z,1.87
2018-03-29T05:20:09.747Z,1.67
2018-03-29T05:22:37.221Z,1.90
2018-03-29T05:25:04.755Z,1.70
2018-03-29T05:27:32.317Z,2.00
2018-03-29T05:30:00.574Z,1.83
2018-03-29T05:32:28.068Z,1.67
2018-03-29T05:34:56.331Z,1.90
2018-03-29T05:37:23.798Z,2.13
2018-03-29T05:39:51.359Z,1.93
2018-03-29T05:42:18.866Z,1.63
2018-03-29T05:44:46.373Z,1.90
2018-03-29T05:47:14.615Z,1.90
2018-03-29T05:49:42.893Z,1.93
2018-03-29T05:52:10.384Z,1.93
2018-03-29T05:54:37.887Z,2.07
2018-03-29T05:57:05.407Z,2.10
2018-03-29T05:59:32.895Z,1.90
2018-03-29T06:02:00.378Z,1.80
2018-03-29T06:04:28.641Z,1.83
2018-03-29T06:06:56.135Z,1.93
2018-03-29T06:09:24.372Z,1.97
2018-03-29T06:11:51.878Z,2.00
2018-03-29T06:14:19.370Z,2.10
2018-03-29T06:16:46.860Z,2.37
2018-03-29T06:19:14.379Z,2.10
2018-03-29T06:21:42.667Z,2.23
2018-03-29T06:24:10.142Z,2.20
2018-03-29T06:26:37.631Z,2.10
2018-03-29T06:29:05.890Z,2.00
2018-03-29T06:31:33.413Z,2.17
2018-03-29T06:34:00.914Z,2.10
2018-03-29T06:36:28.476Z,2.57
2018-03-29T06:38:55.978Z,2.00
2018-03-29T06:41:23.467Z,2.00
2018-03-29T06:43:51.714Z,2.00
2018-03-29T06:46:19.239Z,2.10
2018-03-29T06:48:46.788Z,2.37
2018-03-29T06:51:14.299Z,1.97
2018-03-29T06:53:41.834Z,1.93
2018-03-29T06:56:10.092Z,2.30
2018-03-29T06:58:37.587Z,2.60
2018-03-29T07:01:05.082Z,2.30
2018-03-29T07:03:33.355Z,2.30
2018-03-29T07:06:00.847Z,2.40
2018-03-29T07:08:28.411Z,2.30
2018-03-29T07:10:55.969Z,2.20
2018-03-29T07:13:24.252Z,2.00
2018-03-29T07:15:52.519Z,1.97
2018-03-29T07:18:20.013Z,2.23
2018-03-29T07:20:47.510Z,2.43
2018-03-29T07:23:15.019Z,2.30
2018-03-29T07:25:42.514Z,2.03
2018-03-29T07:28:10.017Z,1.90
2018-03-29T07:30:37.557Z,2.20
2018-03-29T07:33:04.994Z,2.00
2018-03-29T07:35:32.469Z,2.30
2018-03-29T07:37:59.963Z,1.70
2018-03-29T07:40:27.450Z,2.13
2018-03-29T07:42:55.699Z,2.20
2018-03-29T07:45:23.191Z,2.30
2018-03-29T07:47:50.678Z,2.17
2018-03-29T07:50:18.956Z,2.10
2018-03-29T07:52:46.465Z,2.10
2018-03-29T07:55:13.963Z,2.13
2018-03-29T07:57:41.452Z,1.90
2018-03-29T08:00:08.971Z,2.00
2018-03-29T08:02:37.218Z,2.20
2018-03-29T08:05:04.695Z,2.00
2018-03-29T08:07:32.200Z,2.43
2018-03-29T08:10:00.447Z,2.00
2018-03-29T08:12:27.960Z,2.07
2018-03-29T08:14:56.213Z,1.90
2018-03-29T08:17:23.695Z,2.13
2018-03-29T08:19:51.186Z,2.13
2018-03-29T08:22:18.692Z,1.90
2018-03-29T08:24:46.200Z,2.37
2018-03-29T08:27:13.677Z,2.30
2018-03-29T08:29:41.165Z,2.00
2018-03-29T08:32:09.403Z,2.17
2018-03-29T08:34:36.903Z,2.40
2018-03-29T08:37:05.176Z,2.63
2018-03-29T08:39:32.691Z,2.20
2018-03-29T08:42:00.199Z,2.33
2018-03-29T08:44:28.490Z,2.30
2018-03-29T08:46:56.010Z,2.10
2018-03-29T08:49:24.279Z,2.50
2018-03-29T08:51:51.775Z,2.10
2018-03-29T08:54:23.998Z,2.10
2018-03-29T08:56:51.487Z,2.00
2018-03-29T08:59:19.001Z,1.93
2018-03-29T09:01:46.497Z,1.87
2018-03-29T09:04:13.983Z,2.47
2018-03-29T09:06:41.528Z,2.10
2018-03-29T09:09:09.029Z,2.10
2018-03-29T09:11:36.556Z,1.90
2018-03-29T09:14:04.818Z,2.30
2018-03-29T09:16:32.308Z,2.23
2018-03-29T09:19:00.663Z,2.70
2018-03-29T09:21:33.992Z,2.57
2018-03-29T09:24:02.247Z,2.17
2018-03-29T09:26:30.570Z,2.50
2018-03-29T09:28:58.086Z,2.33
2018-03-29T09:31:25.569Z,2.73
2018-03-29T09:33:53.054Z,2.40
2018-03-29T09:36:20.560Z,2.97
2018-03-29T09:38:48.799Z,2.70
2018-03-29T09:41:16.337Z,2.40
2018-03-29T09:43:43.815Z,2.90
2018-03-29T09:46:11.331Z,2.30
2018-03-29T09:48:38.839Z,3.30
2018-03-29T09:51:07.082Z,2.50
2018-03-29T09:53:34.568Z,2.40
2018-03-29T09:56:02.057Z,2.80
2018-03-29T09:58:30.286Z,3.27
2018-03-29T10:01:03.366Z,2.70
2018-03-29T10:03:30.847Z,3.13
2018-03-29T10:06:04.295Z,2.60
2018-03-29T10:08:31.778Z,2.37
2018-03-29T10:10:59.271Z,3.57
2018-03-29T10:13:27.559Z,2.93
2018-03-29T10:15:55.798Z,2.70
2018-03-29T10:18:23.339Z,3.50
2018-03-29T10:20:50.842Z,3.23
2018-03-29T10:23:18.352Z,3.10
2018-03-29T10:25:46.623Z,3.20
2018-03-29T10:28:14.102Z,2.80
2018-03-29T10:30:41.607Z,2.63
2018-03-29T10:33:09.131Z,2.50
2018-03-29T10:35:36.621Z,3.40
2018-03-29T10:38:04.890Z,3.17
2018-03-29T10:40:32.424Z,3.20
2018-03-29T10:42:59.913Z,2.90
2018-03-29T10:45:27.441Z,2.67
2018-03-29T10:47:55.711Z,3.17
2018-03-29T10:50:23.243Z,2.83
2018-03-29T10:52:50.735Z,3.00
2018-03-29T10:55:18.220Z,3.07
2018-03-29T10:57:45.741Z,2.60
2018-03-29T11:00:13.364Z,3.30
2018-03-29T11:02:40.858Z,2.90
2018-03-29T11:05:09.087Z,3.00
2018-03-29T11:07:36.566Z,2.60
2018-03-29T11:10:04.059Z,2.73
2018-03-29T11:12:31.696Z,3.00
2018-03-29T11:14:59.195Z,3.17
2018-03-29T11:17:26.720Z,3.00
2018-03-29T11:19:54.219Z,2.70
2018-03-29T11:22:21.706Z,2.80
2018-03-29T11:24:49.211Z,3.03
2018-03-29T11:27:16.696Z,2.90
2018-03-29T11:29:44.230Z,3.60
2018-03-29T11:32:11.724Z,3.20
2018-03-29T11:34:39.243Z,3.17
2018-03-29T11:37:06.722Z,3.00
2018-03-29T11:39:34.210Z,3.17
2018-03-29T11:42:01.699Z,3.10
2018-03-29T11:44:29.939Z,3.10
2018-03-29T11:46:57.426Z,2.70
2018-03-29T11:49:24.925Z,3.57
2018-03-29T11:51:52.422Z,2.97
2018-03-29T11:54:20.679Z,2.83
2018-03-29T11:56:48.949Z,2.77
2018-03-29T11:59:16.486Z,3.37
2018-03-29T12:01:44.011Z,3.53
2018-03-29T12:04:12.260Z,3.00
2018-03-29T12:06:39.727Z,3.77
2018-03-29T12:09:07.995Z,3.13
2018-03-29T12:11:35.480Z,2.83
2018-03-29T12:14:02.967Z,3.10
2018-03-29T12:16:30.479Z,2.80
2018-03-29T12:18:58.724Z,2.97
2018-03-29T12:21:26.194Z,2.90
2018-03-29T12:23:53.675Z,2.87
2018-03-29T12:26:21.946Z,2.30
2018-03-29T12:28:49.427Z,2.60
2018-03-29T12:31:17.010Z,2.80
2018-03-29T12:33:44.500Z,2.53
2018-03-29T12:36:12.776Z,2.20
2018-03-29T12:38:40.288Z,2.40
2018-03-29T12:41:07.779Z,3.00
2018-03-29T12:43:35.271Z,3.20
2018-03-29T12:46:02.765Z,2.30
2018-03-29T12:48:31.019Z,2.80
2018-03-29T12:50:58.500Z,2.67
2018-03-29T12:53:25.989Z,2.03
2018-03-29T12:55:53.491Z,2.20
2018-03-29T12:58:21.038Z,2.40
2018-03-29T13:00:49.307Z,2.40
2018-03-29T13:03:16.825Z,2.40
2018-03-29T13:05:45.077Z,2.20
2018-03-29T13:08:13.364Z,2.10
2018-03-29T13:10:40.855Z,2.63
2018-03-29T13:13:09.122Z,1.80
2018-03-29T13:15:36.609Z,1.70
2018-03-29T13:18:04.885Z,2.17
2018-03-29T13:20:32.379Z,2.33
2018-03-29T13:23:00.627Z,2.53
2018-03-29T13:25:28.099Z,2.20
2018-03-29T13:27:55.620Z,2.40
2018-03-29T13:30:23.128Z,2.40
2018-03-29T13:32:50.610Z,2.40
2018-03-29T13:35:18.101Z,2.73
2018-03-29T13:37:46.348Z,2.73
2018-03-29T13:40:13.823Z,2.60
2018-03-29T13:42:41.316Z,2.93
2018-03-29T13:45:08.802Z,2.43
2018-03-29T13:47:37.063Z,2.60
2018-03-29T13:50:04.559Z,2.37
2018-03-29T13:52:32.848Z,2.63
2018-03-29T13:55:00.334Z,2.33
2018-03-29T13:57:27.873Z,2.30
2018-03-29T13:59:55.357Z,2.20
2018-03-29T14:02:22.843Z,2.60
2018-03-29T14:04:50.342Z,3.10
2018-03-29T14:07:17.824Z,2.57
2018-03-29T14:09:45.307Z,2.97
2018-03-29T14:12:12.794Z,2.97
2018-03-29T14:14:40.290Z,2.20
2018-03-29T14:17:07.787Z,2.47
2018-03-29T14:19:36.114Z,2.53
2018-03-29T14:22:03.630Z,2.67
2018-03-29T14:24:31.905Z,2.70
2018-03-29T14:27:00.170Z,2.77
2018-03-29T14:29:27.654Z,2.67
2018-03-29T14:31:55.157Z,2.83
2018-03-29T14:34:22.698Z,2.73
2018-03-29T14:36:51.013Z,2.47
2018-03-29T14:39:18.538Z,2.30
2018-03-29T14:41:46.026Z,2.90
2018-03-29T14:44:14.277Z,3.10
2018-03-29T14:46:41.770Z,2.93
2018-03-29T14:49:09.264Z,2.40
2018-03-29T14:51:37.499Z,2.50
2018-03-29T14:54:05.070Z,2.87
2018-03-29T14:56:32.554Z,2.20
2018-03-29T14:59:00.048Z,2.50
2018-03-29T15:01:28.307Z,1.97
2018-03-29T15:03:55.780Z,2.73
2018-03-29T15:06:23.285Z,2.70
2018-03-29T15:08:51.535Z,2.40
2018-03-29T15:11:19.030Z,2.20
2018-03-29T15:13:46.540Z,3.10
2018-03-29T15:16:14.781Z,2.30
2018-03-29T15:18:42.346Z,2.50
2018-03-29T15:21:09.841Z,2.33
2018-03-29T15:23:37.321Z,2.40
2018-03-29T15:26:05.579Z,2.50
2018-03-29T15:28:33.156Z,2.30
2018-03-29T15:31:00.670Z,2.90
2018-03-29T15:33:28.138Z,2.60
2018-03-29T15:35:56.390Z,3.10
2018-03-29T15:38:23.878Z,3.03
2018-03-29T15:40:51.382Z,2.87
2018-03-29T15:43:19.666Z,3.27
2018-03-29T15:45:47.152Z,3.30
2018-03-29T15:48:15.409Z,3.00
2018-03-29T15:50:43.730Z,3.30
2018-03-29T15:53:11.163Z,3.50
2018-03-29T15:55:39.472Z,3.10
2018-03-29T15:58:06.976Z,3.87
2018-03-29T16:00:34.523Z,3.87
2018-03-29T16:03:02.135Z,4.40
2018-03-29T16:05:29.590Z,3.43
2018-03-29T16:07:57.081Z,4.10
2018-03-29T16:10:24.597Z,4.20
2018-03-29T16:12:52.102Z,3.60
2018-03-29T16:15:20.371Z,4.00
2018-03-29T16:17:47.867Z,4.37
2018-03-29T16:20:15.393Z,3.20
2018-03-29T16:22:42.891Z,3.60
2018-03-29T16:25:10.366Z,3.40
2018-03-29T16:27:37.857Z,3.60
2018-03-29T16:30:05.331Z,3.77
2018-03-29T16:32:32.819Z,3.83
2018-03-29T16:35:00.313Z,3.90
2018-03-29T16:37:28.569Z,3.60
2018-03-29T16:39:56.056Z,3.53
2018-03-29T16:42:24.399Z,3.80
2018-03-29T16:44:52.694Z,3.57
2018-03-29T16:47:20.230Z,4.27
2018-03-29T16:49:47.716Z,4.20
2018-03-29T16:52:15.309Z,3.30
2018-03-29T16:54:42.827Z,3.60
2018-03-29T16:57:10.337Z,3.40
2018-03-29T16:59:37.809Z,4.17
2018-03-29T17:02:05.299Z,3.60
2018-03-29T17:04:32.783Z,3.47
2018-03-29T17:07:00.313Z,4.03
2018-03-29T17:09:27.824Z,3.90
2018-03-29T17:11:55.331Z,3.83
2018-03-29T17:14:22.866Z,3.53
2018-03-29T17:16:50.383Z,3.60
2018-03-29T17:19:18.631Z,3.87
2018-03-29T17:21:46.888Z,3.63
2018-03-29T17:24:14.425Z,3.90
2018-03-29T17:26:41.929Z,4.30
2018-03-29T17:29:09.780Z,4.47
2018-03-29T17:31:37.293Z,3.83
2018-03-29T17:34:04.861Z,3.70
2018-03-29T17:36:32.420Z,4.07
2018-03-29T17:38:59.917Z,3.60
2018-03-29T17:41:27.406Z,3.80
2018-03-29T17:43:54.884Z,4.77
2018-03-29T17:46:23.134Z,5.63
2018-03-29T17:48:50.726Z,6.83
2018-03-29T17:51:18.203Z,6.70
2018-03-29T17:53:46.459Z,9.27
2018-03-29T17:56:14.005Z,8.90
2018-03-29T17:58:41.573Z,9.33
2018-03-29T18:01:10.038Z,9.30
2018-03-29T18:03:37.605Z,10.80
2018-03-29T18:06:05.866Z,10.63
2018-03-29T18:08:33.356Z,10.00
2018-03-29T18:11:01.640Z,10.50
2018-03-29T18:13:29.132Z,9.50
2018-03-29T18:15:57.415Z,10.33
2018-03-29T18:18:25.686Z,10.47
2018-03-29T18:20:53.181Z,10.10
2018-03-29T18:23:21.447Z,10.57
2018-03-29T18:25:48.919Z,9.60
2018-03-29T18:28:16.430Z,9.30
2018-03-29T18:30:43.949Z,10.17
2018-03-29T18:33:11.413Z,9.37
2018-03-29T18:35:38.911Z,9.00
2018-03-29T18:38:07.164Z,8.43
2018-03-29T18:40:34.670Z,9.00
2018-03-29T18:43:02.963Z,9.83
2018-03-29T18:45:30.455Z,9.27
2018-03-29T18:47:57.987Z,8.60
2018-03-29T18:50:25.490Z,8.80
2018-03-29T18:52:53.007Z,9.37
2018-03-29T18:55:20.494Z,8.50
2018-03-29T18:57:47.986Z,8.40
2018-03-29T19:00:16.245Z,8.30
2018-03-29T19:02:43.732Z,8.87
2018-03-29T19:05:11.275Z,9.13
2018-03-29T19:07:38.765Z,7.70
2018-03-29T19:10:06.289Z,7.67
2018-03-29T19:12:33.834Z,7.70
2018-03-29T19:15:02.114Z,7.57
2018-03-29T19:17:30.393Z,8.30
2018-03-29T19:19:58.651Z,8.10
2018-03-29T19:22:26.204Z,7.63
2018-03-29T19:24:53.703Z,8.00
2018-03-29T19:27:21.183Z,8.63
2018-03-29T19:29:48.676Z,7.83
2018-03-29T19:32:16.947Z,8.00
2018-03-29T19:34:44.447Z,7.47
2018-03-29T19:37:12.700Z,7.60
2018-03-29T19:39:40.191Z,6.90
2018-03-29T19:42:07.687Z,7.80
2018-03-29T19:44:35.197Z,7.53
2018-03-29T19:47:02.678Z,6.63
2018-03-29T19:49:31.650Z,7.90
2018-03-29T19:51:59.154Z,8.90
2018-03-29T19:54:27.392Z,8.63
2018-03-29T19:56:54.906Z,9.77
2018-03-29T19:59:22.411Z,10.77
2018-03-29T20:01:50.684Z,10.80
2018-03-29T20:04:18.181Z,12.37
2018-03-29T20:06:46.450Z,13.27
2018-03-29T20:09:13.938Z,13.43
2018-03-29T20:11:42.235Z,13.60
2018-03-29T20:14:09.776Z,13.17
2018-03-29T20:16:38.090Z,14.13
2018-03-29T20:19:05.725Z,14.50
2018-03-29T20:21:33.282Z,13.60
2018-03-29T20:24:00.767Z,14.43
2018-03-29T20:26:28.277Z,14.10
2018-03-29T20:28:55.802Z,12.63
2018-03-29T20:31:23.279Z,14.63
2018-03-29T20:33:50.789Z,13.40
2018-03-29T20:36:19.089Z,12.47
2018-03-29T20:38:47.347Z,11.77
2018-03-29T20:41:15.884Z,13.00
2018-03-29T20:43:44.326Z,13.00
2018-03-29T20:46:11.823Z,11.73
2018-03-29T20:48:40.237Z,12.00
2018-03-29T20:51:07.750Z,12.30
2018-03-29T20:53:37.526Z,11.97
2018-03-29T20:56:05.098Z,12.80
2018-03-29T20:58:32.633Z,11.70
2018-03-29T21:01:01.125Z,10.37
2018-03-29T21:03:29.519Z,11.63
2018-03-29T21:05:57.778Z,10.37
2018-03-29T21:08:25.267Z,11.30
2018-03-29T21:10:52.758Z,10.87
2018-03-29T21:13:21.040Z,11.07
2018-03-29T21:15:49.304Z,10.57
2018-03-29T21:18:16.867Z,10.50
2018-03-29T21:20:44.364Z,10.77
2018-03-29T21:23:11.879Z,11.00
2018-03-29T21:25:39.383Z,9.80
2018-03-29T21:28:06.887Z,10.40
2018-03-29T21:30:35.141Z,10.50
2018-03-29T21:33:02.663Z,9.70
2018-03-29T21:35:31.152Z,9.83
2018-03-29T21:37:59.515Z,10.27
2018-03-29T21:40:30.823Z,9.63
2018-03-29T21:42:58.318Z,9.50
2018-03-29T21:45:25.850Z,10.00
2018-03-29T21:47:54.100Z,9.90
2018-03-29T21:50:21.603Z,9.30
2018-03-29T21:52:49.919Z,8.77
2018-03-29T21:55:17.522Z,8.00
2018-03-29T21:57:45.329Z,9.10
2018-03-29T22:00:15.656Z,8.73
2018-03-29T22:02:43.962Z,8.63
2018-03-29T22:05:11.580Z,8.33
2018-03-29T22:07:39.527Z,8.27
2018-03-29T22:10:07.788Z,8.00
2018-03-29T22:12:35.264Z,8.70
2018-03-29T22:17:44.654Z,8.70
2018-03-29T22:20:16.487Z,7.97
2018-03-29T22:22:49.109Z,8.40
2018-03-29T22:25:29.339Z,8.40
2018-03-29T22:28:02.128Z,7.90
2018-03-29T22:30:29.667Z,7.70
2018-03-29T22:33:07.956Z,7.97
2018-03-29T22:35:35.643Z,8.70
2018-03-29T22:38:07.523Z,7.80
2018-03-29T22:40:35.577Z,7.90
2018-03-29T22:43:03.595Z,7.63
2018-03-29T22:45:33.609Z,7.50
2018-03-29T22:48:01.106Z,7.43
2018-03-29T22:50:29.390Z,7.33
2018-03-29T22:52:57.102Z,7.60
2018-03-29T22:55:24.595Z,8.00
2018-03-29T22:57:52.994Z,7.20
2018-03-29T23:00:35.006Z,7.43
2018-03-29T23:03:02.485Z,7.13
2018-03-29T23:05:29.994Z,7.43
2018-03-29T23:07:57.499Z,7.27
2018-03-29T23:10:24.998Z,7.30
2018-03-29T23:12:52.476Z,6.57
2018-03-29T23:15:20.751Z,7.20
2018-03-29T23:17:48.296Z,7.80
2018-03-29T23:20:15.795Z,8.20
2018-03-29T23:22:43.318Z,7.97
2018-03-29T23:25:10.830Z,7.90
2018-03-29T23:27:38.315Z,6.70
2018-03-29T23:30:05.826Z,7.10
2018-03-29T23:32:33.334Z,7.47
2018-03-29T23:35:00.993Z,6.93
2018-03-29T23:37:28.590Z,7.63
2018-03-29T23:39:56.188Z,7.17
2018-03-29T23:42:23.675Z,7.40
2018-03-29T23:44:51.935Z,7.90
2018-03-29T23:47:19.443Z,8.10
2018-03-29T23:49:47.077Z,6.63
2018-03-29T23:52:14.634Z,7.17
2018-03-29T23:54:42.118Z,7.27
2018-03-29T23:57:09.674Z,7.60
2018-03-29T23:59:37.199Z,7.70
